Terminal Aerodrome Forecast
Issued by NWS

Home | Current Version | Previous Version | Text Only | Print | Product List | Glossary On
Versions: 1 2 3 4 5 6 7 8 9 10 11 12 13 14 15 16
000
FTUS41 KBTV 232113 AAA
TAFRUT
TAF AMD
KRUT 232113Z 2321/2418 13006KT P6SM OVC035
     FM240900 14012KT 4SM -RA BR OVC015
     FM241200 15010KT 4SM RA BR OVC007
     FM241600 15010KT 4SM BR OVC015
      AMD LTD TO CLD VIS AND WIND=

USA.gov is the U.S. government's official web portal to all federal, state and local government web resources and services.